Time;durP1;ratioP1;P1;durP2;ratioP2;P2;SDS_P1;SDS_P2;PMS_P1;PMS_P2;Temp;Humidity;BMP_temperature;BMP_pressure;BME280_temperature;BME280_humidity;BME280_pressure;Samples;Min_cycle;Max_cycle;Signal;HPM_P1;HPM_P2
2023/07/18 00:00:12;;;;;;;19.30;6.45;;;28.60;76.00;;;;;;5055800;28;20025;-72
2023/07/18 00:02:39;;;;;;;12.57;6.32;;;28.60;76.40;;;;;;5055685;28;20087;-72
2023/07/18 00:05:06;;;;;;;21.67;6.15;;;28.50;76.70;;;;;;5055465;28;20481;-72
2023/07/18 01:23:49;;;;;;;;;;;27.60;79.20;;;;;;4317386;28;20083;-73
2023/07/18 01:26:15;;;;;;;23.45;6.47;;;27.60;79.00;;;;;;5050242;28;19939;-72
2023/07/18 01:28:42;;;;;;;21.58;5.72;;;27.60;79.00;;;;;;5053533;28;20033;-72
2023/07/18 01:31:07;;;;;;;16.25;5.82;;;27.50;78.90;;;;;;5053779;28;20508;-71
2023/07/18 01:33:34;;;;;;;13.40;5.72;;;27.60;78.90;;;;;;5053513;28;20035;-72
2023/07/18 01:36:00;;;;;;;19.60;5.88;;;27.50;78.90;;;;;;5053582;28;20025;-72
2023/07/18 01:38:29;;;;;;;18.33;5.40;;;27.50;78.90;;;;;;5053712;28;20079;-72
2023/07/18 01:40:59;;;;;;;14.77;5.82;;;27.50;78.90;;;;;;5053609;28;20070;-72
2023/07/18 01:43:25;;;;;;;14.90;5.47;;;27.50;78.70;;;;;;5053618;28;20057;-72
2023/07/18 01:45:51;;;;;;;17.35;6.50;;;27.50;78.80;;;;;;5053598;28;20033;-72
2023/07/18 01:48:18;;;;;;;17.42;5.57;;;27.50;78.90;;;;;;5053631;28;20029;-72
2023/07/18 01:50:44;;;;;;;15.20;6.15;;;27.50;78.60;;;;;;5053119;28;20025;-72
2023/07/18 01:53:13;;;;;;;17.27;6.80;;;27.50;79.20;;;;;;5053689;28;20031;-72
2023/07/18 01:55:39;;;;;;;13.40;5.75;;;27.50;79.10;;;;;;5053321;28;20024;-72
2023/07/18 01:58:05;;;;;;;14.57;6.20;;;27.50;79.20;;;;;;5053490;28;20395;-72
2023/07/18 02:00:31;;;;;;;14.15;5.72;;;27.50;79.20;;;;;;5053507;28;20028;-72
2023/07/18 02:02:57;;;;;;;11.10;5.95;;;27.40;79.30;;;;;;5053226;28;20021;-73
2023/07/18 02:05:28;;;;;;;13.77;6.38;;;27.40;79.60;;;;;;5035095;28;20033;-72
2023/07/18 02:07:55;;;;;;;15.38;6.30;;;27.50;80.00;;;;;;5053487;28;20068;-72
2023/07/18 02:10:21;;;;;;;15.43;5.40;;;27.50;80.20;;;;;;5053326;28;20386;-72
2023/07/18 02:12:49;;;;;;;16.98;6.57;;;27.40;80.30;;;;;;5053107;28;20430;-71
2023/07/18 02:15:15;;;;;;;16.70;6.90;;;27.50;80.50;;;;;;5053216;28;20025;-72
2023/07/18 02:17:42;;;;;;;14.50;6.60;;;27.40;80.50;;;;;;5053136;28;20079;-72
2023/07/18 02:20:11;;;;;;;17.48;6.55;;;27.50;80.70;;;;;;5053075;28;20409;-72
2023/07/18 02:22:40;;;;;;;15.18;5.82;;;27.50;80.80;;;;;;5053009;28;20072;-72
2023/07/18 02:25:07;;;;;;;18.10;6.35;;;27.50;80.80;;;;;;5052939;28;20076;-72
2023/07/18 02:27:38;;;;;;;18.67;6.75;;;27.50;80.90;;;;;;5052952;28;20513;-72
2023/07/18 02:30:08;;;;;;;18.30;6.68;;;27.50;80.80;;;;;;5052625;28;20368;-72
2023/07/18 02:32:34;;;;;;;14.82;6.07;;;27.50;80.90;;;;;;5052703;28;20020;-72
2023/07/18 02:35:00;;;;;;;10.27;6.32;;;27.50;81.00;;;;;;5052858;28;20100;-72
2023/07/18 02:37:26;;;;;;;14.55;6.47;;;27.50;81.20;;;;;;5052889;28;20086;-72
2023/07/18 02:39:52;;;;;;;21.95;6.22;;;27.50;81.70;;;;;;5052811;28;20524;-72
2023/07/18 02:42:18;;;;;;;14.95;6.13;;;27.50;81.70;;;;;;5052924;28;20100;-72
2023/07/18 02:44:45;;;;;;;14.18;6.10;;;27.50;81.70;;;;;;5052698;28;20112;-72
2023/07/18 02:47:11;;;;;;;19.55;6.07;;;27.40;81.70;;;;;;5052753;28;20032;-72
2023/07/18 02:49:37;;;;;;;17.17;7.10;;;27.40;81.70;;;;;;5052765;28;20029;-72
2023/07/18 02:52:05;;;;;;;14.15;6.25;;;27.40;82.00;;;;;;5052769;28;20456;-72
2023/07/18 02:54:31;;;;;;;17.48;6.88;;;27.40;82.20;;;;;;5052620;28;20070;-72
2023/07/18 02:56:58;;;;;;;12.73;6.50;;;27.50;82.30;;;;;;5052756;28;20029;-71
2023/07/18 02:59:24;;;;;;;12.90;6.18;;;27.40;82.10;;;;;;5052580;28;20032;-72
2023/07/18 03:01:52;;;;;;;17.08;6.43;;;27.40;82.20;;;;;;5052576;28;20088;-71
2023/07/18 03:04:18;;;;;;;13.68;6.22;;;27.40;82.20;;;;;;5056386;28;20033;-72
2023/07/18 03:06:47;;;;;;;16.98;6.28;;;27.40;82.20;;;;;;5056756;28;20025;-72
2023/07/18 03:09:16;;;;;;;11.23;6.22;;;27.40;82.30;;;;;;5056402;28;20043;-72
2023/07/18 03:11:42;;;;;;;11.98;6.55;;;27.40;82.30;;;;;;5056360;28;20096;-72
2023/07/18 03:14:08;;;;;;;14.70;6.35;;;27.40;82.30;;;;;;5056407;28;20686;-71
2023/07/18 03:16:34;;;;;;;14.48;6.30;;;27.30;82.30;;;;;;5056671;28;20033;-72
2023/07/18 03:19:00;;;;;;;18.33;6.28;;;27.30;82.40;;;;;;5056464;28;20036;-72
2023/07/18 03:21:26;;;;;;;17.60;6.82;;;27.30;82.40;;;;;;5056372;28;20107;-72
2023/07/18 03:23:53;;;;;;;11.30;5.85;;;27.30;82.30;;;;;;5056317;28;20083;-72
2023/07/18 03:26:19;;;;;;;12.23;6.47;;;27.30;82.40;;;;;;5056043;28;20079;-71
2023/07/18 03:28:45;;;;;;;18.58;7.03;;;27.30;82.40;;;;;;5056338;28;20438;-72
2023/07/18 03:31:11;;;;;;;10.70;5.88;;;27.30;82.30;;;;;;5056346;28;20035;-72
2023/07/18 03:33:36;;;;;;;16.30;6.25;;;27.30;82.30;;;;;;5056078;28;20104;-72
2023/07/18 03:36:04;;;;;;;17.63;6.88;;;27.30;82.40;;;;;;5056103;28;20383;-72
2023/07/18 03:38:30;;;;;;;15.90;6.07;;;27.30;82.50;;;;;;5056118;28;20533;-72
2023/07/18 03:40:58;;;;;;;14.05;6.47;;;27.30;82.50;;;;;;5056097;28;20169;-72
2023/07/18 03:43:24;;;;;;;13.02;6.63;;;27.30;82.40;;;;;;5056012;28;20017;-72
2023/07/18 03:45:51;;;;;;;13.75;6.90;;;27.30;82.50;;;;;;5055738;28;20029;-72
2023/07/18 03:48:17;;;;;;;15.63;6.28;;;27.30;82.50;;;;;;5055935;28;20111;-72
2023/07/18 03:50:43;;;;;;;14.55;6.40;;;27.30;82.60;;;;;;5055984;28;20017;-72
2023/07/18 03:53:09;;;;;;;12.05;5.68;;;27.30;82.70;;;;;;5055830;28;20028;-72
2023/07/18 03:55:35;;;;;;;17.38;6.35;;;27.20;82.70;;;;;;5055947;28;20025;-72
2023/07/18 03:58:01;;;;;;;17.35;6.00;;;27.20;82.60;;;;;;5055674;28;20032;-72
2023/07/18 04:00:27;;;;;;;19.73;6.95;;;27.20;82.80;;;;;;5055615;28;20017;-72
2023/07/18 04:02:52;;;;;;;22.15;8.48;;;27.20;83.10;;;;;;5055740;28;20367;-71
2023/07/18 04:05:19;;;;;;;12.70;6.85;;;27.20;83.00;;;;;;5055604;28;20094;-71
2023/07/18 04:07:46;;;;;;;14.93;7.13;;;27.10;83.70;;;;;;5055617;28;20064;-71
2023/07/18 04:10:12;;;;;;;16.58;7.57;;;27.10;83.20;;;;;;5055466;28;20025;-72
2023/07/18 04:12:38;;;;;;;17.27;7.05;;;27.10;83.20;;;;;;5055377;28;20031;-72
2023/07/18 04:15:06;;;;;;;23.88;7.82;;;27.10;83.10;;;;;;5055127;28;20080;-72
2023/07/18 04:17:32;;;;;;;15.85;7.03;;;27.10;83.10;;;;;;5055391;28;20088;-72
2023/07/18 04:20:01;;;;;;;14.20;7.47;;;27.00;83.00;;;;;;5055528;28;20116;-72
2023/07/18 04:22:30;;;;;;;17.83;7.13;;;27.00;83.60;;;;;;5055438;28;20036;-72
2023/07/18 04:24:57;;;;;;;17.88;7.43;;;27.00;83.10;;;;;;5054863;28;20465;-72
2023/07/18 04:27:23;;;;;;;15.35;6.72;;;27.00;83.20;;;;;;5054943;28;20471;-72
2023/07/18 04:29:52;;;;;;;17.20;7.47;;;27.00;83.30;;;;;;5055021;28;20096;-71
2023/07/18 04:32:18;;;;;;;14.02;7.07;;;27.00;83.70;;;;;;5037178;28;20402;-72
2023/07/18 04:34:46;;;;;;;16.30;6.95;;;27.00;83.70;;;;;;5054926;28;20425;-73
2023/07/18 04:37:12;;;;;;;14.38;6.38;;;27.00;83.70;;;;;;5055093;28;20021;-71
2023/07/18 04:39:38;;;;;;;13.73;6.80;;;26.90;83.50;;;;;;5054705;28;20021;-72
2023/07/18 04:42:04;;;;;;;9.82;6.38;;;27.00;83.80;;;;;;5036915;28;20036;-72
2023/07/18 04:44:30;;;;;;;17.60;6.80;;;27.00;83.80;;;;;;5054740;28;20108;-72
2023/07/18 04:46:56;;;;;;;20.67;6.85;;;27.00;83.80;;;;;;5054823;28;20402;-72
2023/07/18 04:49:23;;;;;;;19.92;6.90;;;27.00;84.10;;;;;;5054542;28;20036;-72
2023/07/18 04:51:51;;;;;;;14.90;7.00;;;27.00;84.30;;;;;;5054460;28;20068;-72
2023/07/18 04:54:17;;;;;;;16.85;7.32;;;27.00;84.40;;;;;;5054603;28;20021;-72
2023/07/18 04:56:43;;;;;;;16.75;6.40;;;27.00;84.50;;;;;;5054388;28;20082;-72
2023/07/18 04:59:09;;;;;;;16.40;6.80;;;27.00;85.30;;;;;;5054574;28;20025;-72
2023/07/18 05:01:36;;;;;;;9.73;6.60;;;27.00;84.70;;;;;;5054445;28;20025;-72
2023/07/18 05:04:02;;;;;;;13.40;6.95;;;27.10;84.80;;;;;;5054440;28;20017;-71
2023/07/18 05:06:28;;;;;;;13.43;6.60;;;27.10;85.00;;;;;;5054306;28;20486;-72
2023/07/18 05:08:54;;;;;;;15.90;6.07;;;27.10;85.00;;;;;;5054441;28;20056;-72
2023/07/18 05:11:20;;;;;;;12.20;6.53;;;27.10;85.00;;;;;;5054304;28;20025;-72
2023/07/18 05:13:45;;;;;;;14.18;6.30;;;27.10;85.10;;;;;;5054374;28;20075;-72
2023/07/18 05:16:11;;;;;;;12.65;6.30;;;27.20;85.10;;;;;;5054098;28;20494;-72
2023/07/18 05:18:37;;;;;;;16.83;6.18;;;27.20;85.20;;;;;;5054111;28;20107;-72
2023/07/18 05:21:03;;;;;;;8.80;5.55;;;27.20;85.10;;;;;;5054194;28;20032;-72
2023/07/18 05:23:28;;;;;;;10.25;5.50;;;27.20;84.90;;;;;;5053921;28;20029;-71
2023/07/18 05:25:56;;;;;;;12.07;6.28;;;27.30;84.90;;;;;;5053050;28;20052;-72
2023/07/18 05:28:22;;;;;;;10.35;5.40;;;27.30;84.70;;;;;;5053878;28;20021;-72
2023/07/18 05:30:48;;;;;;;14.00;5.30;;;27.40;84.50;;;;;;5053799;28;20039;-72
2023/07/18 05:33:14;;;;;;;10.10;5.45;;;27.40;84.00;;;;;;5053828;28;20055;-72
2023/07/18 05:35:40;;;;;;;14.38;5.93;;;27.40;83.40;;;;;;5053696;28;20029;-72
2023/07/18 05:38:06;;;;;;;13.18;6.28;;;27.40;82.80;;;;;;5035764;28;20025;-72
2023/07/18 05:40:32;;;;;;;10.60;6.70;;;27.50;82.40;;;;;;5053556;28;20048;-72
2023/07/18 05:42:58;;;;;;;14.90;6.00;;;27.50;82.40;;;;;;5053640;28;20067;-72
2023/07/18 05:45:23;;;;;;;9.63;5.90;;;27.60;82.20;;;;;;5053588;28;20135;-72
2023/07/18 05:47:49;;;;;;;7.30;5.47;;;27.60;82.00;;;;;;5053624;28;20040;-71
2023/07/18 05:50:16;;;;;;;11.23;5.72;;;27.60;81.80;;;;;;5053701;28;20025;-72
2023/07/18 05:52:42;;;;;;;16.13;6.28;;;27.70;81.70;;;;;;5053725;28;20025;-72
2023/07/18 05:55:08;;;;;;;10.65;5.70;;;27.80;82.40;;;;;;5053682;28;20124;-71
2023/07/18 05:57:34;;;;;;;10.63;6.18;;;27.70;81.60;;;;;;5053661;28;20387;-72
2023/07/18 06:00:00;;;;;;;10.13;5.63;;;27.80;80.90;;;;;;5053276;28;20029;-72
2023/07/18 06:02:26;;;;;;;12.35;5.85;;;27.80;80.70;;;;;;5053552;28;20560;-72
2023/07/18 06:04:52;;;;;;;9.45;5.47;;;27.90;80.60;;;;;;5053061;28;20029;-72
2023/07/18 06:07:18;;;;;;;9.85;5.15;;;27.90;80.40;;;;;;5053234;28;20025;-72
2023/07/18 06:09:44;;;;;;;7.97;5.50;;;28.00;80.50;;;;;;5053383;28;20032;-72
2023/07/18 06:12:11;;;;;;;6.50;5.13;;;28.00;80.50;;;;;;5053350;28;20510;-72
2023/07/18 06:14:37;;;;;;;12.07;4.82;;;28.00;80.10;;;;;;5053167;28;20032;-72
2023/07/18 06:17:04;;;;;;;12.18;5.68;;;28.10;80.10;;;;;;5053087;28;20052;-72
2023/07/18 06:19:30;;;;;;;11.77;5.32;;;28.10;80.00;;;;;;5053076;28;20513;-72
2023/07/18 06:21:55;;;;;;;11.75;5.55;;;28.10;79.80;;;;;;5053279;28;20063;-72
2023/07/18 06:24:21;;;;;;;12.27;5.20;;;28.20;79.80;;;;;;5052719;28;20479;-72
2023/07/18 06:26:50;;;;;;;13.82;4.80;;;28.20;79.10;;;;;;5035132;28;20033;-72
2023/07/18 06:29:19;;;;;;;19.13;7.47;;;28.30;78.60;;;;;;5053152;28;20403;-72
2023/07/18 06:31:50;;;;;;;12.38;5.05;;;28.30;79.20;;;;;;5052896;28;20025;-72
2023/07/18 06:34:19;;;;;;;7.50;4.40;;;28.40;79.50;;;;;;5053087;28;20029;-72
2023/07/18 06:36:45;;;;;;;9.38;4.60;;;28.40;79.00;;;;;;5052936;28;20017;-72
2023/07/18 06:39:11;;;;;;;10.93;4.47;;;28.40;78.60;;;;;;5052949;28;20388;-72
2023/07/18 06:41:37;;;;;;;12.75;4.63;;;28.50;78.40;;;;;;5052720;28;20021;-72
2023/07/18 06:44:05;;;;;;;6.57;4.28;;;28.50;78.20;;;;;;5052853;28;20033;-72
2023/07/18 06:46:31;;;;;;;4.93;4.03;;;28.50;78.00;;;;;;5052580;28;20021;-72
2023/07/18 06:48:57;;;;;;;6.88;4.53;;;28.60;77.80;;;;;;5034889;28;20025;-72
2023/07/18 06:51:25;;;;;;;11.82;4.40;;;28.60;77.50;;;;;;5052701;28;20025;-72
2023/07/18 06:53:52;;;;;;;13.07;4.82;;;28.70;77.60;;;;;;5052689;28;20017;-72
2023/07/18 06:56:18;;;;;;;7.28;4.30;;;28.70;77.00;;;;;;5052558;28;20047;-72
2023/07/18 06:58:43;;;;;;;5.78;4.75;;;28.70;76.80;;;;;;5052787;28;20017;-72
2023/07/18 07:01:10;;;;;;;8.10;4.60;;;28.70;76.90;;;;;;5052592;28;20091;-72
2023/07/18 07:03:36;;;;;;;8.95;4.75;;;28.80;76.60;;;;;;5052556;28;20048;-72
2023/07/18 07:06:08;;;;;;;9.80;4.35;;;28.90;76.50;;;;;;5052580;28;20090;-72
2023/07/18 07:08:33;;;;;;;6.53;4.45;;;28.90;76.80;;;;;;5052652;28;20048;-72
2023/07/18 07:11:04;;;;;;;7.05;4.18;;;28.90;76.50;;;;;;5052613;28;20025;-72
2023/07/18 07:13:30;;;;;;;7.83;4.50;;;29.00;76.70;;;;;;5052497;28;20056;-72
2023/07/18 07:15:56;;;;;;;9.85;4.18;;;29.10;76.70;;;;;;5052515;28;20033;-72
2023/07/18 07:18:22;;;;;;;8.07;4.30;;;29.10;76.10;;;;;;5052401;28;20486;-72
2023/07/18 07:20:48;;;;;;;7.15;4.07;;;29.10;75.50;;;;;;5052446;28;20033;-72
2023/07/18 07:23:14;;;;;;;6.10;3.92;;;29.20;75.40;;;;;;5052386;28;20013;-72
2023/07/18 07:25:39;;;;;;;6.47;4.22;;;29.20;75.60;;;;;;5052345;28;20060;-72
2023/07/18 07:28:05;;;;;;;9.60;4.63;;;29.20;75.90;;;;;;5052215;28;20037;-72
2023/07/18 07:30:31;;;;;;;8.95;4.28;;;29.30;75.30;;;;;;5052479;28;20029;-72
2023/07/18 07:32:57;;;;;;;8.32;4.53;;;29.30;75.00;;;;;;5052450;28;20017;-72
2023/07/18 07:35:23;;;;;;;12.02;4.30;;;29.40;74.80;;;;;;5052262;28;20025;-72
2023/07/18 07:37:51;;;;;;;9.88;5.15;;;29.40;74.60;;;;;;5052489;28;20025;-72
2023/07/18 07:40:18;;;;;;;8.20;4.15;;;29.40;74.30;;;;;;5052131;28;20029;-72
2023/07/18 07:42:45;;;;;;;14.20;4.55;;;29.50;74.30;;;;;;5052187;28;20021;-72
2023/07/18 07:45:16;;;;;;;12.82;5.07;;;29.50;73.00;;;;;;5052237;28;20047;-72
2023/07/18 07:47:42;;;;;;;10.07;4.72;;;29.60;74.00;;;;;;5052298;28;20110;-72
2023/07/18 07:50:10;;;;;;;9.82;4.30;;;29.60;73.10;;;;;;5055475;28;20441;-72
2023/07/18 07:52:35;;;;;;;8.38;4.57;;;29.70;72.50;;;;;;5055885;28;20045;-72
2023/07/18 07:55:01;;;;;;;8.95;4.55;;;29.70;72.50;;;;;;5055738;28;20467;-72
2023/07/18 07:57:28;;;;;;;10.13;4.15;;;29.80;72.80;;;;;;5055555;28;20029;-72
2023/07/18 07:59:53;;;;;;;12.75;4.60;;;29.80;71.70;;;;;;5055786;28;20021;-73
2023/07/18 08:02:19;;;;;;;11.35;4.57;;;29.90;72.00;;;;;;5055780;28;20021;-72
2023/07/18 08:04:46;;;;;;;11.68;5.38;;;29.90;71.80;;;;;;5055431;28;20037;-72
2023/07/18 08:07:14;;;;;;;11.73;4.45;;;30.00;71.90;;;;;;5055411;28;20075;-72
2023/07/18 08:09:40;;;;;;;14.95;4.50;;;30.00;71.60;;;;;;5055455;28;20108;-72
2023/07/18 08:12:06;;;;;;;11.07;4.47;;;30.10;72.00;;;;;;5055581;28;20029;-73
2023/07/18 08:14:33;;;;;;;11.07;4.57;;;30.10;71.60;;;;;;5055555;28;20108;-72
2023/07/18 08:16:59;;;;;;;7.13;4.50;;;30.10;72.00;;;;;;5055388;28;20013;-72
2023/07/18 08:19:27;;;;;;;7.82;4.30;;;30.20;70.70;;;;;;5055405;28;20037;-72
2023/07/18 08:21:53;;;;;;;10.85;4.63;;;30.20;70.10;;;;;;5055457;28;20014;-72
2023/07/18 08:24:19;;;;;;;7.97;4.82;;;30.20;70.50;;;;;;5036986;28;20115;-72
2023/07/18 08:26:45;;;;;;;9.40;4.28;;;30.30;71.00;;;;;;5055286;28;20055;-72
2023/07/18 08:29:11;;;;;;;7.25;3.97;;;30.40;70.60;;;;;;5055013;28;20037;-72
2023/07/18 08:31:36;;;;;;;12.30;4.38;;;30.40;70.10;;;;;;5055368;28;20087;-71
2023/07/18 08:34:02;;;;;;;10.32;4.13;;;30.40;69.90;;;;;;5055377;28;20467;-72
2023/07/18 08:36:29;;;;;;;12.75;4.22;;;30.50;70.20;;;;;;5055201;28;20100;-72
2023/07/18 08:38:55;;;;;;;7.80;4.57;;;30.50;70.00;;;;;;5054924;28;20037;-72
2023/07/18 08:41:21;;;;;;;11.07;4.97;;;30.60;69.70;;;;;;5054720;28;20025;-72
2023/07/18 08:43:47;;;;;;;13.52;4.55;;;30.60;69.80;;;;;;5054900;28;20434;-72
2023/07/18 08:46:14;;;;;;;7.85;4.25;;;30.70;69.40;;;;;;5054845;28;20041;-72
2023/07/18 08:48:44;;;;;;;10.98;4.22;;;30.70;68.90;;;;;;5054846;28;20383;-72
2023/07/18 08:51:11;;;;;;;11.40;4.63;;;30.70;68.60;;;;;;5036847;28;20029;-72
2023/07/18 08:53:43;;;;;;;11.13;4.50;;;30.80;68.30;;;;;;5054650;28;20475;-72
2023/07/18 08:56:09;;;;;;;7.97;4.88;;;30.90;67.70;;;;;;5054750;28;20387;-72
2023/07/18 08:58:38;;;;;;;7.50;4.55;;;30.90;66.30;;;;;;5054678;28;20066;-72
2023/07/18 09:01:06;;;;;;;6.25;4.30;;;30.90;67.30;;;;;;5053568;28;20025;-72
2023/07/18 09:03:32;;;;;;;7.03;4.28;;;31.00;67.30;;;;;;5054442;28;20463;-72
2023/07/18 09:06:17;;;;;;;9.57;4.43;;;31.00;67.00;;;;;;5054182;28;20597;-72
2023/07/18 09:08:43;;;;;;;8.75;4.10;;;31.00;67.30;;;;;;5054616;28;20021;-71
2023/07/18 09:11:12;;;;;;;7.13;4.47;;;31.10;67.20;;;;;;5036488;28;20033;-72
2023/07/18 09:13:39;;;;;;;8.85;4.80;;;31.10;67.20;;;;;;5054388;28;20021;-71
2023/07/18 09:16:21;;;;;;;5.57;4.20;;;31.10;65.80;;;;;;5065015;22;20041;-71
2023/07/18 09:18:52;;;;;;;10.77;4.47;;;31.20;66.50;;;;;;5074198;28;20025;-72
2023/07/18 09:21:19;;;;;;;6.65;4.50;;;31.20;67.40;;;;;;5074177;28;20481;-72
2023/07/18 09:23:46;;;;;;;11.95;4.97;;;31.20;66.20;;;;;;5074147;28;20067;-71
2023/07/18 09:26:18;;;;;;;6.10;4.22;;;31.20;66.80;;;;;;5056056;28;20048;-71
2023/07/18 09:28:45;;;;;;;9.18;4.53;;;31.30;66.60;;;;;;5074022;28;20025;-72
2023/07/18 09:31:21;;;;;;;9.20;4.55;;;31.30;67.00;;;;;;5073607;28;20032;-72
2023/07/18 09:33:48;;;;;;;6.93;4.55;;;31.40;67.60;;;;;;5073947;28;20024;-71
2023/07/18 09:36:19;;;;;;;5.50;4.03;;;31.40;66.90;;;;;;5073839;28;20028;-71
2023/07/18 09:38:46;;;;;;;14.48;4.90;;;31.50;66.10;;;;;;5073768;28;20104;-72
2023/07/18 09:41:16;;;;;;;7.40;4.32;;;31.50;65.90;;;;;;5073956;28;20031;-71
2023/07/18 09:43:45;;;;;;;11.50;4.57;;;31.50;65.50;;;;;;5073594;28;20655;-72
2023/07/18 09:46:12;;;;;;;11.90;4.78;;;31.60;65.50;;;;;;5073821;28;20435;-72
2023/07/18 09:48:43;;;;;;;6.57;4.53;;;31.60;65.60;;;;;;5073694;28;20025;-72
2023/07/18 09:51:15;;;;;;;9.53;4.70;;;31.70;66.10;;;;;;5073687;28;20493;-71
2023/07/18 09:53:48;;;;;;;8.00;4.15;;;31.70;65.60;;;;;;5055654;28;20315;-72
2023/07/18 09:56:15;;;;;;;8.90;4.85;;;31.80;66.00;;;;;;5073354;28;20100;-71
2023/07/18 09:58:43;;;;;;;6.55;4.60;;;31.80;65.90;;;;;;5073472;28;20032;-71
2023/07/18 10:01:12;;;;;;;10.38;5.05;;;31.90;66.20;;;;;;5073233;28;20021;-72
2023/07/18 10:03:40;;;;;;;6.75;4.50;;;31.90;65.90;;;;;;5073044;28;20032;-72
2023/07/18 10:06:09;;;;;;;9.68;5.30;;;32.00;65.60;;;;;;5073127;28;20071;-72
2023/07/18 10:08:39;;;;;;;7.88;5.05;;;31.90;65.80;;;;;;5073211;28;20021;-71
2023/07/18 10:11:07;;;;;;;10.20;4.60;;;32.00;64.80;;;;;;5073216;28;20020;-72
2023/07/18 10:13:41;;;;;;;6.60;4.38;;;32.10;65.30;;;;;;5073187;28;20116;-72
2023/07/18 10:16:13;;;;;;;9.43;5.03;;;32.10;65.10;;;;;;5073089;28;20063;-72
2023/07/18 10:18:50;;;;;;;10.15;4.72;;;32.20;65.30;;;;;;5073289;28;20112;-72
2023/07/18 10:21:33;;;;;;;10.65;5.00;;;32.20;64.80;;;;;;5072748;28;20021;-72
2023/07/18 10:24:24;;;;;;;16.80;4.32;;;32.30;65.10;;;;;;5072794;28;20024;-72
2023/07/18 10:26:57;;;;;;;14.73;4.72;;;32.40;66.30;;;;;;5072928;28;20408;-71
2023/07/18 10:29:23;;;;;;;10.00;4.95;;;32.40;64.80;;;;;;5072739;28;20039;-71
2023/07/18 10:31:48;;;;;;;10.57;5.05;;;32.40;64.80;;;;;;5072951;28;20016;-72
2023/07/18 10:34:16;;;;;;;11.70;4.50;;;32.50;64.60;;;;;;5072909;28;20024;-72
2023/07/18 10:37:06;;;;;;;13.63;4.75;;;32.50;65.10;;;;;;5072923;28;20031;-71
2023/07/18 10:39:43;;;;;;;13.73;4.90;;;32.60;64.40;;;;;;5073034;28;20024;-71
2023/07/18 10:42:20;;;;;;;7.60;4.95;;;32.60;65.00;;;;;;5073090;28;20624;-71
2023/07/18 10:45:03;;;;;;;15.77;4.90;;;32.60;65.40;;;;;;5072860;28;20032;-72
2023/07/18 10:47:29;;;;;;;11.55;5.45;;;32.70;65.00;;;;;;5072536;28;20044;-72
2023/07/18 10:49:56;;;;;;;10.63;5.55;;;32.70;63.70;;;;;;5072750;28;20109;-72
2023/07/18 10:52:22;;;;;;;12.52;4.43;;;32.70;62.30;;;;;;5072536;28;20021;-72
2023/07/18 10:54:55;;;;;;;8.85;4.65;;;32.70;62.60;;;;;;5072814;28;20043;-72
2023/07/18 10:57:34;;;;;;;7.07;4.70;;;32.70;63.90;;;;;;5072722;28;20023;-71
2023/07/18 11:00:03;;;;;;;9.00;4.80;;;32.70;63.60;;;;;;5072753;28;20025;-72
2023/07/18 11:02:38;;;;;;;12.55;5.10;;;32.80;63.80;;;;;;5072668;28;20021;-72
2023/07/18 11:05:10;;;;;;;11.63;5.10;;;32.80;63.10;;;;;;5072827;28;20036;-72
2023/07/18 11:07:39;;;;;;;14.63;5.35;;;32.90;62.50;;;;;;5072982;28;20029;-72
2023/07/18 11:10:06;;;;;;;10.10;4.95;;;32.90;61.20;;;;;;5072617;28;20028;-72
2023/07/18 11:12:32;;;;;;;10.45;5.40;;;33.00;61.40;;;;;;5072374;28;20043;-72
2023/07/18 11:14:57;;;;;;;11.73;4.85;;;33.00;61.40;;;;;;5072529;28;20469;-72
2023/07/18 11:17:23;;;;;;;7.93;5.32;;;33.10;61.10;;;;;;5072247;28;20045;-72
2023/07/18 11:19:49;;;;;;;12.10;4.93;;;33.10;60.70;;;;;;5072596;28;20085;-72
2023/07/18 11:22:15;;;;;;;9.75;5.30;;;33.20;61.30;;;;;;5072428;28;20031;-71
2023/07/18 11:24:43;;;;;;;11.65;5.13;;;33.20;61.10;;;;;;5075299;28;20032;-72
2023/07/18 11:27:23;;;;;;;8.38;4.60;;;33.30;60.50;;;;;;5076317;28;20035;-72
2023/07/18 11:30:03;;;;;;;10.82;5.20;;;33.30;60.20;;;;;;5076328;28;20033;-72
2023/07/18 11:32:40;;;;;;;10.38;5.22;;;33.30;60.20;;;;;;5076354;28;20090;-72
2023/07/18 11:35:20;;;;;;;10.10;4.95;;;33.40;60.50;;;;;;5076108;28;20039;-72
2023/07/18 11:37:51;;;;;;;11.45;5.47;;;33.40;61.50;;;;;;5076086;28;20033;-72
2023/07/18 11:40:28;;;;;;;18.60;5.68;;;33.40;61.60;;;;;;5076159;28;20082;-72
2023/07/18 11:42:57;;;;;;;12.02;5.57;;;33.50;62.10;;;;;;5076367;28;20086;-72
2023/07/18 11:45:25;;;;;;;9.57;5.28;;;33.60;61.90;;;;;;5075888;28;20033;-72
2023/07/18 11:47:53;;;;;;;12.15;5.15;;;33.60;62.30;;;;;;5076111;28;20029;-72
2023/07/18 11:50:20;;;;;;;9.40;5.13;;;33.60;61.60;;;;;;5076005;28;20115;-71
2023/07/18 11:52:50;;;;;;;10.52;4.95;;;33.60;61.40;;;;;;5075894;28;20029;-72
2023/07/18 11:55:17;;;;;;;11.00;5.40;;;33.70;61.90;;;;;;5075729;28;20081;-72
2023/07/18 11:57:44;;;;;;;10.10;5.80;;;33.70;62.10;;;;;;5075634;28;20258;-71
2023/07/18 12:00:11;;;;;;;10.18;5.30;;;33.70;60.90;;;;;;5075732;28;20505;-72
2023/07/18 12:02:37;;;;;;;8.45;5.07;;;33.70;60.40;;;;;;5075931;28;20072;-71
2023/07/18 12:05:07;;;;;;;13.65;5.32;;;33.70;59.70;;;;;;5075614;28;20119;-72
2023/07/18 12:07:33;;;;;;;9.13;5.65;;;33.70;60.40;;;;;;5075483;28;20111;-72
2023/07/18 12:09:59;;;;;;;9.38;5.22;;;33.80;60.30;;;;;;5075621;28;20029;-72
2023/07/18 12:12:25;;;;;;;8.55;5.03;;;33.80;60.40;;;;;;5075523;28;20526;-72
2023/07/18 12:14:51;;;;;;;10.35;5.40;;;33.80;62.10;;;;;;5075284;28;20146;-72
2023/07/18 12:17:17;;;;;;;12.55;5.35;;;33.80;60.50;;;;;;5075305;28;20102;-72
2023/07/18 12:19:44;;;;;;;13.18;5.45;;;33.80;60.00;;;;;;5075411;28;20020;-72
2023/07/18 12:22:11;;;;;;;12.63;5.47;;;33.80;60.10;;;;;;5075551;28;20043;-72
2023/07/18 12:24:37;;;;;;;10.65;5.57;;;33.80;60.20;;;;;;5075365;28;20557;-71
2023/07/18 12:27:04;;;;;;;9.55;5.47;;;33.80;60.60;;;;;;5075250;28;20481;-71
2023/07/18 12:29:31;;;;;;;9.82;5.47;;;33.90;61.80;;;;;;5075224;28;20028;-72
2023/07/18 12:31:56;;;;;;;11.93;6.03;;;33.90;62.20;;;;;;5075289;28;20027;-72
2023/07/18 12:34:22;;;;;;;9.93;5.93;;;34.00;62.60;;;;;;5075003;28;20016;-72
2023/07/18 12:36:48;;;;;;;7.50;5.45;;;34.10;62.00;;;;;;5075148;28;20028;-72
2023/07/18 12:39:15;;;;;;;10.23;5.40;;;34.10;61.50;;;;;;5075238;28;20029;-73
2023/07/18 12:41:41;;;;;;;11.32;5.32;;;34.10;60.10;;;;;;5075008;28;20024;-72
2023/07/18 12:44:08;;;;;;;15.48;5.25;;;34.20;60.30;;;;;;5074961;28;20029;-72
2023/07/18 12:46:34;;;;;;;7.75;5.20;;;34.20;60.80;;;;;;5074883;28;20020;-72
2023/07/18 12:49:00;;;;;;;9.65;5.13;;;34.20;60.40;;;;;;5074906;28;20511;-72
2023/07/18 12:51:26;;;;;;;9.45;5.60;;;34.30;61.00;;;;;;5074761;28;20131;-72
2023/07/18 12:53:52;;;;;;;10.35;5.13;;;34.20;61.00;;;;;;5074804;28;20025;-72
2023/07/18 12:56:19;;;;;;;8.65;5.15;;;34.30;61.20;;;;;;5074442;28;20026;-71
2023/07/18 12:58:45;;;;;;;11.63;5.30;;;34.30;61.20;;;;;;5074570;28;20612;-72
2023/07/18 13:01:11;;;;;;;12.73;6.43;;;34.40;60.80;;;;;;5074802;28;20091;-72
2023/07/18 13:03:37;;;;;;;9.38;5.70;;;34.40;60.80;;;;;;5074704;28;20021;-72
2023/07/18 13:06:08;;;;;;;10.45;5.40;;;34.50;60.60;;;;;;5074506;28;20569;-72
2023/07/18 13:08:34;;;;;;;16.92;5.97;;;34.40;61.20;;;;;;5074706;28;20035;-72
2023/07/18 13:11:00;;;;;;;9.05;5.60;;;34.50;60.70;;;;;;5074669;28;20501;-72
2023/07/18 13:13:26;;;;;;;9.65;5.60;;;34.50;60.10;;;;;;5074448;28;20017;-72
2023/07/18 13:15:51;;;;;;;6.95;5.20;;;34.50;59.50;;;;;;5074217;28;20032;-72
2023/07/18 13:18:18;;;;;;;16.05;5.90;;;34.40;58.70;;;;;;5074399;28;20025;-72
2023/07/18 13:20:44;;;;;;;9.93;5.38;;;34.40;59.50;;;;;;5074101;28;20024;-72
2023/07/18 13:23:10;;;;;;;12.02;5.50;;;34.40;59.90;;;;;;5074274;28;20063;-72
2023/07/18 13:25:36;;;;;;;12.75;5.30;;;34.40;59.50;;;;;;5074020;28;20110;-72
2023/07/18 13:28:02;;;;;;;12.23;5.45;;;34.40;59.30;;;;;;5074014;28;20082;-72
2023/07/18 13:30:28;;;;;;;13.23;5.13;;;34.40;60.20;;;;;;5073536;28;20482;-72
2023/07/18 13:32:54;;;;;;;10.25;5.10;;;34.30;60.20;;;;;;5073901;28;20024;-72
2023/07/18 13:35:21;;;;;;;8.93;5.10;;;34.30;60.60;;;;;;5073987;28;20028;-73
2023/07/18 13:37:47;;;;;;;9.98;5.43;;;34.30;60.40;;;;;;5073912;28;20104;-72
2023/07/18 13:40:12;;;;;;;9.35;4.82;;;34.40;60.20;;;;;;5073894;28;20107;-72
2023/07/18 13:42:38;;;;;;;12.32;5.03;;;34.40;60.30;;;;;;5073608;28;20025;-72
2023/07/18 13:45:07;;;;;;;7.15;4.90;;;34.40;60.50;;;;;;5073513;28;20041;-73
2023/07/18 13:47:35;;;;;;;8.55;5.57;;;34.40;61.40;;;;;;5073132;28;20150;-73
2023/07/18 13:50:01;;;;;;;10.30;4.75;;;34.50;61.40;;;;;;5073783;28;20374;-72
2023/07/18 13:52:27;;;;;;;8.75;4.97;;;34.50;61.20;;;;;;5073714;28;20020;-72
2023/07/18 13:54:53;;;;;;;10.32;5.35;;;34.50;61.10;;;;;;5073548;28;20030;-72
2023/07/18 13:57:19;;;;;;;9.77;5.25;;;34.50;60.40;;;;;;5073673;28;20096;-72